createdAt,value
2018-11-27T00:00:36.442Z,19.80
2018-11-27T00:03:07.050Z,18.83
2018-11-27T00:05:36.655Z,20.20
2018-11-27T00:08:05.484Z,18.17
2018-11-27T00:10:35.730Z,19.43
2018-11-27T00:13:04.379Z,17.37
2018-11-27T00:15:32.915Z,18.83
2018-11-27T00:18:01.582Z,20.27
2018-11-27T00:20:30.516Z,18.87
2018-11-27T00:22:59.243Z,19.30
2018-11-27T00:25:27.846Z,18.97
2018-11-27T00:27:56.499Z,17.90
2018-11-27T00:30:25.606Z,20.37
2018-11-27T00:32:54.190Z,20.13
2018-11-27T00:35:23.326Z,17.60
2018-11-27T00:37:51.873Z,18.07
2018-11-27T00:40:24.316Z,19.60
2018-11-27T00:42:52.891Z,19.30
2018-11-27T00:45:22.388Z,17.57
2018-11-27T00:47:51.565Z,17.53
2018-11-27T00:50:21.494Z,18.80
2018-11-27T00:52:50.045Z,20.07
2018-11-27T00:55:19.472Z,18.63
2018-11-27T00:57:49.403Z,18.93
2018-11-27T01:00:20.216Z,17.93
2018-11-27T01:02:48.867Z,19.47
2018-11-27T01:05:20.935Z,18.37
2018-11-27T01:07:49.566Z,19.17
2018-11-27T01:10:21.362Z,20.03
2018-11-27T01:12:50.079Z,18.43
2018-11-27T01:15:18.687Z,20.63
2018-11-27T01:18:03.131Z,19.97
2018-11-27T01:20:31.768Z,20.93
2018-11-27T01:23:00.356Z,20.17
2018-11-27T01:25:29.059Z,20.73
2018-11-27T01:27:57.612Z,18.57
2018-11-27T01:30:26.205Z,19.37
2018-11-27T01:32:54.805Z,21.27
2018-11-27T01:35:24.318Z,19.97
2018-11-27T01:37:55.072Z,20.33
2018-11-27T01:40:25.336Z,20.90
2018-11-27T01:42:54.790Z,19.40
2018-11-27T01:45:24.457Z,21.50
2018-11-27T01:47:53.198Z,20.40
2018-11-27T01:50:22.044Z,21.43
2018-11-27T01:52:50.918Z,21.17
2018-11-27T01:55:21.564Z,21.50
2018-11-27T01:57:50.103Z,21.67
2018-11-27T02:00:28.947Z,21.50
2018-11-27T02:02:58.351Z,21.47
2018-11-27T02:05:27.732Z,22.57
2018-11-27T02:07:56.386Z,20.87
2018-11-27T02:10:25.026Z,22.23
2018-11-27T02:12:54.763Z,22.40
2018-11-27T02:15:25.533Z,22.03
2018-11-27T02:17:55.115Z,22.80
2018-11-27T02:20:23.634Z,21.97
2018-11-27T02:22:52.248Z,22.93
2018-11-27T02:25:28.827Z,21.07
2018-11-27T02:27:57.616Z,21.33
2018-11-27T02:30:27.253Z,20.67
2018-11-27T02:32:55.842Z,21.50
2018-11-27T02:35:25.538Z,21.00
2018-11-27T02:37:55.971Z,20.40
2018-11-27T02:40:24.574Z,20.80
2018-11-27T02:42:53.177Z,19.40
2018-11-27T02:45:22.679Z,19.23
2018-11-27T02:47:52.103Z,19.43
2018-11-27T02:50:22.638Z,20.30
2018-11-27T02:52:51.216Z,17.93
2018-11-27T02:55:22.948Z,19.37
2018-11-27T02:57:51.553Z,18.83
2018-11-27T03:00:28.848Z,19.33
2018-11-27T03:02:57.570Z,17.57
2018-11-27T03:05:31.254Z,18.97
2018-11-27T03:07:59.829Z,18.90
2018-11-27T03:10:28.541Z,19.43
2018-11-27T03:12:57.081Z,18.80
2018-11-27T03:15:25.624Z,20.07
2018-11-27T03:17:54.493Z,19.20
2018-11-27T03:20:23.526Z,19.17
2018-11-27T03:22:52.196Z,17.47
2018-11-27T03:25:21.867Z,19.13
2018-11-27T03:27:51.588Z,18.93
2018-11-27T03:30:22.018Z,18.07
2018-11-27T03:32:50.670Z,19.53
2018-11-27T03:35:20.537Z,19.00
2018-11-27T03:37:49.658Z,19.40
2018-11-27T03:40:19.361Z,19.23
2018-11-27T03:42:47.951Z,20.20
2018-11-27T03:45:17.194Z,18.80
2018-11-27T03:47:45.964Z,19.20
2018-11-27T03:50:19.036Z,18.60
2018-11-27T03:52:47.619Z,19.97
2018-11-27T03:55:16.345Z,19.80
2018-11-27T03:57:44.988Z,19.30
2018-11-27T04:00:18.466Z,19.20
2018-11-27T04:02:51.430Z,18.73
2018-11-27T04:05:20.057Z,20.03
2018-11-27T04:07:48.578Z,19.30
2018-11-27T04:10:18.555Z,20.27
2018-11-27T04:12:47.120Z,18.83
2018-11-27T04:15:15.725Z,20.10
2018-11-27T04:17:44.304Z,19.43
2018-11-27T04:20:13.794Z,20.13
2018-11-27T04:22:43.197Z,20.33
2018-11-27T04:25:14.026Z,20.70
2018-11-27T04:27:42.811Z,20.20
2018-11-27T04:30:14.351Z,19.93
2018-11-27T04:32:43.223Z,20.00
2018-11-27T04:35:13.096Z,21.97
2018-11-27T04:37:41.972Z,21.40
2018-11-27T04:40:13.891Z,21.63
2018-11-27T04:42:42.556Z,21.17
2018-11-27T04:45:13.501Z,20.23
2018-11-27T04:47:42.030Z,19.40
2018-11-27T04:50:12.000Z,20.33
2018-11-27T04:52:40.771Z,20.80
2018-11-27T04:55:10.919Z,20.27
2018-11-27T04:57:39.567Z,19.40
2018-11-27T05:00:23.825Z,21.07
2018-11-27T05:02:53.170Z,21.03
2018-11-27T05:05:21.840Z,21.07
2018-11-27T05:07:50.495Z,21.23
2018-11-27T05:10:21.035Z,19.83
2018-11-27T05:12:49.712Z,21.13
2018-11-27T05:15:21.042Z,21.37
2018-11-27T05:17:51.835Z,20.73
2018-11-27T05:20:20.386Z,20.27
2018-11-27T05:22:48.954Z,21.37
2018-11-27T05:25:18.603Z,21.80
2018-11-27T05:27:49.015Z,21.33
2018-11-27T05:30:19.676Z,21.10
2018-11-27T05:32:48.475Z,20.53
2018-11-27T05:35:18.218Z,21.03
2018-11-27T05:37:47.945Z,19.70
2018-11-27T05:40:18.851Z,21.83
2018-11-27T05:42:48.306Z,20.60
2018-11-27T05:45:18.181Z,20.27
2018-11-27T05:47:46.753Z,19.83
2018-11-27T05:50:16.579Z,20.37
2018-11-27T05:52:45.127Z,20.27
2018-11-27T05:55:14.967Z,21.27
2018-11-27T05:57:44.618Z,19.73
2018-11-27T06:00:15.775Z,19.17
2018-11-27T06:02:44.594Z,20.63
2018-11-27T06:05:16.795Z,19.33
2018-11-27T06:07:45.528Z,20.33
2018-11-27T06:10:16.661Z,20.03
2018-11-27T06:12:45.452Z,21.27
2018-11-27T06:15:19.554Z,19.77
2018-11-27T06:17:50.186Z,21.00
2018-11-27T06:20:20.835Z,19.53
2018-11-27T06:22:49.862Z,19.80
2018-11-27T06:25:20.718Z,19.53
2018-11-27T06:28:05.894Z,20.70
2018-11-27T06:30:35.694Z,21.37
2018-11-27T06:33:04.678Z,21.37
2018-11-27T06:35:35.269Z,21.27
2018-11-27T06:38:05.635Z,21.50
2018-11-27T06:40:34.813Z,21.30
2018-11-27T06:43:03.775Z,21.73
2018-11-27T06:45:32.739Z,20.33
2018-11-27T06:48:01.647Z,20.93
2018-11-27T06:50:30.633Z,21.23
2018-11-27T06:52:59.521Z,21.53
2018-11-27T06:55:28.728Z,20.53
2018-11-27T06:57:57.910Z,22.17
2018-11-27T07:00:28.204Z,22.60
2018-11-27T07:02:58.054Z,21.63
2018-11-27T07:05:26.871Z,22.07
2018-11-27T07:07:55.592Z,22.13
2018-11-27T07:10:28.802Z,21.63
2018-11-27T07:13:02.255Z,21.90
2018-11-27T07:15:31.038Z,23.00
2018-11-27T07:17:59.623Z,22.47
2018-11-27T07:20:28.178Z,22.70
2018-11-27T07:22:56.777Z,22.77
2018-11-27T07:25:25.412Z,23.70
2018-11-27T07:27:54.287Z,22.60
2018-11-27T07:30:24.119Z,23.50
2018-11-27T07:32:52.827Z,22.10
2018-11-27T07:35:21.881Z,23.07
2018-11-27T07:37:50.738Z,23.70
2018-11-27T07:40:25.738Z,23.47
2018-11-27T07:42:55.636Z,23.13
2018-11-27T07:45:24.906Z,23.20
2018-11-27T07:47:54.062Z,23.00
2018-11-27T07:50:22.661Z,24.33
2018-11-27T07:52:51.312Z,25.07
2018-11-27T07:55:21.217Z,23.37
2018-11-27T07:57:50.760Z,23.47
2018-11-27T08:00:20.885Z,24.77
2018-11-27T08:02:52.595Z,24.97
2018-11-27T08:05:24.355Z,23.70
2018-11-27T08:07:54.112Z,23.20
2018-11-27T08:10:23.791Z,25.13
2018-11-27T08:12:52.394Z,24.77
2018-11-27T08:15:22.422Z,23.93
2018-11-27T08:17:51.033Z,24.93
2018-11-27T08:20:21.014Z,26.50
2018-11-27T08:22:49.631Z,24.57
2018-11-27T08:25:18.206Z,24.63
2018-11-27T08:27:46.739Z,25.20
2018-11-27T08:30:17.398Z,26.33
2018-11-27T08:32:46.201Z,25.33
2018-11-27T08:35:16.949Z,25.00
2018-11-27T08:37:46.290Z,24.83
2018-11-27T08:40:15.903Z,25.40
2018-11-27T08:42:44.444Z,25.73
2018-11-27T08:45:18.146Z,25.67
2018-11-27T08:47:47.451Z,24.73
2018-11-27T08:50:17.291Z,23.63
2018-11-27T08:52:48.946Z,25.10
2018-11-27T08:55:22.879Z,25.60
2018-11-27T08:57:51.794Z,23.37
2018-11-27T09:00:21.568Z,25.53
2018-11-27T09:02:50.108Z,25.40
2018-11-27T09:05:19.552Z,26.17
2018-11-27T09:07:48.731Z,24.77
2018-11-27T09:10:22.759Z,26.17
2018-11-27T09:12:51.452Z,25.57
2018-11-27T09:15:22.122Z,26.00
2018-11-27T09:17:57.283Z,26.03
2018-11-27T09:20:25.897Z,24.30
2018-11-27T09:22:54.440Z,26.23
2018-11-27T09:25:23.030Z,25.80
2018-11-27T09:27:52.091Z,26.73
2018-11-27T09:30:22.271Z,24.47
2018-11-27T09:32:51.128Z,25.20
2018-11-27T09:35:19.997Z,24.77
2018-11-27T09:37:48.762Z,24.90
2018-11-27T09:40:18.956Z,25.17
2018-11-27T09:42:47.676Z,25.13
2018-11-27T09:45:17.515Z,23.87
2018-11-27T09:47:47.180Z,24.77
2018-11-27T09:50:17.015Z,24.07
2018-11-27T09:52:46.182Z,25.93
2018-11-27T09:55:17.139Z,24.93
2018-11-27T09:57:45.875Z,23.73
2018-11-27T10:00:35.203Z,24.53
2018-11-27T10:03:06.876Z,25.67
2018-11-27T10:05:35.877Z,25.70
2018-11-27T10:08:05.633Z,23.77
2018-11-27T10:10:34.792Z,25.40
2018-11-27T10:13:04.417Z,23.23
2018-11-27T10:15:33.338Z,24.73
2018-11-27T10:18:02.904Z,25.33
2018-11-27T10:20:42.814Z,25.00
2018-11-27T10:23:13.656Z,24.07
2018-11-27T10:25:43.522Z,23.80
2018-11-27T10:28:12.124Z,22.70
2018-11-27T10:30:40.697Z,26.37
2018-11-27T10:33:10.422Z,23.50
2018-11-27T10:35:54.204Z,23.27
2018-11-27T10:38:22.845Z,23.13
2018-11-27T10:40:51.882Z,22.30
2018-11-27T10:43:20.440Z,24.03
2018-11-27T10:45:49.079Z,21.80
2018-11-27T10:48:17.819Z,24.20
2018-11-27T10:50:46.366Z,24.83
2018-11-27T10:53:14.937Z,21.87
2018-11-27T10:55:44.291Z,21.90
2018-11-27T10:58:12.825Z,21.97
2018-11-27T11:00:47.040Z,20.60
2018-11-27T11:03:46.369Z,21.67
2018-11-27T11:06:14.951Z,21.43
2018-11-27T11:08:43.550Z,21.10
2018-11-27T11:11:12.216Z,19.93
2018-11-27T11:13:40.814Z,20.17
2018-11-27T11:16:09.427Z,20.30
2018-11-27T11:18:37.996Z,20.97
2018-11-27T11:21:07.225Z,19.50
2018-11-27T11:23:35.843Z,19.70
2018-11-27T11:26:04.590Z,20.37
2018-11-27T11:28:33.455Z,19.80
2018-11-27T11:31:02.132Z,19.67
2018-11-27T11:33:31.318Z,20.20
2018-11-27T11:35:59.951Z,19.47
2018-11-27T11:38:28.525Z,18.73
2018-11-27T11:40:57.067Z,18.27
2018-11-27T11:43:25.710Z,19.23
2018-11-27T11:45:55.434Z,18.20
2018-11-27T11:48:24.052Z,18.13
2018-11-27T11:50:52.602Z,18.27
2018-11-27T11:53:21.250Z,18.17
2018-11-27T11:55:50.649Z,18.87
2018-11-27T11:58:19.412Z,18.20
2018-11-27T12:00:55.074Z,18.73
2018-11-27T12:03:23.622Z,17.43
2018-11-27T12:05:52.207Z,17.77
2018-11-27T12:08:20.772Z,18.97
2018-11-27T12:10:49.432Z,20.33
2018-11-27T12:13:18.204Z,18.27
2018-11-27T12:15:47.236Z,19.77
2018-11-27T12:18:15.918Z,18.37
2018-11-27T12:20:45.261Z,18.07
2018-11-27T12:23:13.998Z,17.47
2018-11-27T12:25:42.560Z,17.17
2018-11-27T12:28:14.677Z,18.43
2018-11-27T12:30:40.039Z,19.47
2018-11-27T12:33:11.551Z,17.37
2018-11-27T12:35:40.175Z,17.70
2018-11-27T12:38:09.694Z,17.70
2018-11-27T12:40:38.331Z,18.00
2018-11-27T12:43:07.331Z,18.10
2018-11-27T12:45:35.942Z,18.03
2018-11-27T12:48:04.783Z,16.47
2018-11-27T12:50:41.722Z,17.17
2018-11-27T12:53:16.544Z,18.57
2018-11-27T12:55:41.727Z,17.93
2018-11-27T12:58:11.002Z,17.83
2018-11-27T13:00:40.226Z,17.43
2018-11-27T13:03:09.382Z,16.60
2018-11-27T13:05:40.259Z,16.87
2018-11-27T13:08:12.201Z,15.97
2018-11-27T13:10:40.803Z,17.23
2018-11-27T13:13:09.415Z,16.53
2018-11-27T13:15:39.178Z,16.90
2018-11-27T13:18:09.149Z,16.40
2018-11-27T13:20:39.441Z,17.07
2018-11-27T13:23:08.583Z,17.37
2018-11-27T13:25:38.170Z,17.33
2018-11-27T13:28:08.266Z,15.93
2018-11-27T13:31:10.439Z,16.73
2018-11-27T13:33:59.434Z,16.73
2018-11-27T13:36:28.001Z,17.07
2018-11-27T13:39:06.575Z,15.97
2018-11-27T13:41:35.124Z,16.73
2018-11-27T13:44:03.759Z,16.73
2018-11-27T13:46:36.240Z,17.83
2018-11-27T13:49:04.995Z,16.20
2018-11-27T13:51:40.282Z,17.23
2018-11-27T13:54:09.610Z,16.03
2018-11-27T13:56:38.158Z,17.53
2018-11-27T13:59:06.946Z,18.53
2018-11-27T14:01:37.748Z,18.80
2018-11-27T14:04:04.340Z,18.87
2018-11-27T14:06:32.983Z,17.33
2018-11-27T14:09:01.918Z,16.70
2018-11-27T14:11:30.481Z,17.43
2018-11-27T14:13:59.065Z,18.30
2018-11-27T14:16:27.695Z,17.50
2018-11-27T14:18:56.482Z,17.63
2018-11-27T14:21:25.103Z,17.63
2018-11-27T14:23:53.942Z,17.43
2018-11-27T14:26:23.149Z,16.57
2018-11-27T14:28:51.698Z,18.13
2018-11-27T14:31:20.241Z,17.53
2018-11-27T14:33:48.896Z,17.43
2018-11-27T14:36:17.486Z,17.93
2018-11-27T14:38:46.151Z,18.50
2018-11-27T14:41:14.728Z,18.63
2018-11-27T14:43:43.295Z,18.13
2018-11-27T14:46:11.850Z,18.60
2018-11-27T14:48:40.427Z,19.30
2018-11-27T14:51:08.966Z,18.00
2018-11-27T14:53:37.672Z,18.90
2018-11-27T14:56:07.042Z,17.23
2018-11-27T14:58:35.754Z,18.47
2018-11-27T15:01:04.323Z,18.50
2018-11-27T15:03:32.983Z,17.87
2018-11-27T15:06:01.613Z,17.57
2018-11-27T15:08:30.899Z,18.53
2018-11-27T15:10:59.518Z,18.00
2018-11-27T15:13:28.699Z,18.77
2018-11-27T15:15:57.359Z,18.10
2018-11-27T15:18:25.923Z,19.67
2018-11-27T15:20:55.081Z,19.13
2018-11-27T15:23:23.652Z,19.07
2018-11-27T15:25:53.249Z,19.33
2018-11-27T15:28:22.202Z,18.57
2018-11-27T15:30:50.774Z,19.70
2018-11-27T15:33:19.854Z,27.50
2018-11-27T15:35:48.729Z,23.40
2018-11-27T15:38:17.510Z,22.13
2018-11-27T15:40:46.559Z,20.43
2018-11-27T15:43:15.812Z,19.50
2018-11-27T15:45:44.407Z,19.83
2018-11-27T15:48:13.005Z,19.83
2018-11-27T15:50:41.521Z,21.97
2018-11-27T15:53:10.143Z,21.03
2018-11-27T15:55:39.841Z,23.77
2018-11-27T15:58:11.755Z,23.93
2018-11-27T16:00:41.003Z,21.13
2018-11-27T16:03:09.736Z,19.90
2018-11-27T16:05:39.198Z,20.50
2018-11-27T16:08:08.582Z,19.87
2018-11-27T16:10:37.964Z,20.27
2018-11-27T16:13:07.466Z,19.07
2018-11-27T16:15:37.032Z,20.20
2018-11-27T16:18:06.076Z,19.33
2018-11-27T16:20:34.628Z,19.47
2018-11-27T16:23:03.196Z,19.13
2018-11-27T16:25:32.608Z,19.17
2018-11-27T16:28:03.520Z,20.17
2018-11-27T16:30:34.447Z,19.33
2018-11-27T16:33:04.551Z,19.57
2018-11-27T16:35:34.175Z,18.50
2018-11-27T16:38:05.551Z,19.57
2018-11-27T16:40:39.003Z,20.03
2018-11-27T16:43:09.236Z,19.43
2018-11-27T16:45:40.009Z,19.90
2018-11-27T16:48:12.226Z,18.97
2018-11-27T16:50:42.918Z,18.67
2018-11-27T16:53:13.518Z,18.97
2018-11-27T16:55:44.418Z,17.80
2018-11-27T16:58:15.175Z,19.10
2018-11-27T17:00:45.883Z,18.53
2018-11-27T17:03:17.349Z,18.77
2018-11-27T17:05:47.631Z,20.33
2018-11-27T17:08:18.687Z,17.83
2018-11-27T17:10:49.897Z,18.23
2018-11-27T17:13:21.245Z,19.70
2018-11-27T17:15:50.881Z,21.13
2018-11-27T17:18:21.375Z,20.20
2018-11-27T17:20:51.100Z,19.03
2018-11-27T17:23:21.005Z,19.27
2018-11-27T17:25:50.314Z,17.90
2018-11-27T17:28:22.608Z,18.87
2018-11-27T17:31:01.495Z,17.93
2018-11-27T17:33:37.362Z,17.73
2018-11-27T17:36:08.888Z,17.63
2018-11-27T17:38:38.996Z,18.63
2018-11-27T17:41:09.065Z,19.83
2018-11-27T17:43:38.991Z,17.87
2018-11-27T17:46:09.011Z,17.03
2018-11-27T17:48:38.999Z,16.80
2018-11-27T17:51:09.035Z,16.60
2018-11-27T17:53:38.937Z,16.87
2018-11-27T17:56:09.054Z,15.80
2018-11-27T17:58:40.002Z,17.73
2018-11-27T18:01:09.963Z,16.60
2018-11-27T18:03:40.123Z,16.13
2018-11-27T18:06:09.046Z,16.50
2018-11-27T18:08:39.831Z,16.77
2018-11-27T18:11:09.571Z,17.40
2018-11-27T18:13:38.409Z,16.03
2018-11-27T18:16:09.240Z,15.57
2018-11-27T18:18:39.705Z,15.57
2018-11-27T18:21:10.177Z,15.37
2018-11-27T18:23:39.766Z,15.70
2018-11-27T18:26:11.068Z,15.97
2018-11-27T18:28:42.186Z,16.13
2018-11-27T18:31:12.299Z,16.27
2018-11-27T18:33:44.144Z,15.77
2018-11-27T18:36:16.029Z,15.47
2018-11-27T18:38:47.039Z,16.13
2018-11-27T18:41:17.729Z,16.87
2018-11-27T18:43:48.125Z,15.30
2018-11-27T18:46:18.549Z,16.67
2018-11-27T18:48:48.798Z,16.50
2018-11-27T18:51:19.458Z,15.67
2018-11-27T18:53:54.706Z,16.43
2018-11-27T18:56:21.173Z,16.77
2018-11-27T18:58:52.087Z,15.77
2018-11-27T19:01:22.762Z,16.57
2018-11-27T19:03:54.464Z,16.77
2018-11-27T19:06:25.161Z,16.80
2018-11-27T19:08:54.600Z,16.63
2018-11-27T19:11:25.723Z,15.40
2018-11-27T19:13:54.423Z,15.47
2018-11-27T19:16:23.371Z,16.80
2018-11-27T19:18:52.073Z,15.23
2018-11-27T19:21:20.669Z,16.00
2018-11-27T19:23:58.862Z,17.17
2018-11-27T19:26:39.321Z,16.80
2018-11-27T19:29:11.094Z,16.07
2018-11-27T19:31:50.433Z,17.43
2018-11-27T19:34:33.930Z,17.23
2018-11-27T19:40:27.730Z,17.03
2018-11-27T19:42:58.935Z,15.60
2018-11-27T19:45:37.387Z,15.27
2018-11-27T19:48:15.342Z,16.10
2018-11-27T19:50:57.241Z,16.73
2018-11-27T19:53:30.158Z,18.17
2018-11-27T19:56:01.628Z,17.53
2018-11-27T19:58:30.231Z,16.33
2018-11-27T20:00:58.764Z,16.80
2018-11-27T20:03:27.364Z,17.00
2018-11-27T20:05:55.975Z,15.47
2018-11-27T20:08:24.984Z,17.00
2018-11-27T20:10:54.620Z,15.97
2018-11-27T20:13:23.406Z,16.17
2018-11-27T20:15:52.014Z,21.47
2018-11-27T20:18:21.374Z,17.00
2018-11-27T20:20:50.986Z,18.40
2018-11-27T20:23:20.642Z,16.10
2018-11-27T20:25:49.433Z,18.27
2018-11-27T20:28:18.378Z,18.10
2018-11-27T20:30:47.683Z,16.70
2018-11-27T20:33:16.234Z,17.60
2018-11-27T20:35:45.691Z,16.27
2018-11-27T20:38:14.628Z,18.83
2018-11-27T20:40:43.510Z,15.23
2018-11-27T20:43:13.605Z,15.43
2018-11-27T20:45:45.774Z,16.73
2018-11-27T20:48:17.998Z,16.10
2018-11-27T20:50:49.558Z,17.30
2018-11-27T20:53:19.055Z,16.73
2018-11-27T20:55:48.108Z,16.00
2018-11-27T20:58:16.713Z,16.83
2018-11-27T21:00:46.956Z,18.03
2018-11-27T21:03:15.630Z,17.87
2018-11-27T21:05:44.283Z,16.83
2018-11-27T21:08:12.915Z,16.47
2018-11-27T21:10:41.467Z,17.67
2018-11-27T21:13:11.779Z,17.30
2018-11-27T21:15:42.710Z,17.13
2018-11-27T21:18:12.182Z,16.17
2018-11-27T21:20:41.833Z,19.13
2018-11-27T21:23:10.610Z,17.97
2018-11-27T21:25:39.202Z,18.67
2018-11-27T21:28:14.242Z,17.30
2018-11-27T21:30:43.592Z,17.17
2018-11-27T21:33:12.732Z,17.50
2018-11-27T21:35:41.538Z,17.43
2018-11-27T21:38:10.211Z,17.77
2018-11-27T21:40:39.154Z,18.57
2018-11-27T21:43:08.759Z,16.37
2018-11-27T21:45:37.951Z,16.03
2018-11-27T21:48:07.343Z,17.67
2018-11-27T21:50:41.832Z,17.43
2018-11-27T21:53:10.999Z,17.03
2018-11-27T21:55:40.639Z,18.17
2018-11-27T21:58:09.991Z,17.67
2018-11-27T22:00:40.001Z,17.53
2018-11-27T22:03:09.587Z,18.30
2018-11-27T22:05:38.165Z,18.60
2018-11-27T22:08:08.119Z,17.97
2018-11-27T22:10:36.878Z,19.40
2018-11-27T22:13:07.336Z,18.60
2018-11-27T22:15:38.198Z,18.37
2018-11-27T22:18:08.274Z,17.87
2018-11-27T22:20:36.962Z,17.63
2018-11-27T22:23:06.612Z,18.30
2018-11-27T22:25:35.315Z,18.13
2018-11-27T22:28:04.533Z,18.57
2018-11-27T22:30:33.371Z,18.93
2018-11-27T22:33:01.951Z,17.03
2018-11-27T22:35:30.527Z,17.23
2018-11-27T22:37:59.298Z,19.23
2018-11-27T22:40:29.861Z,17.63
2018-11-27T22:42:59.154Z,18.07
2018-11-27T22:45:35.213Z,17.43
2018-11-27T22:48:03.824Z,17.77
2018-11-27T22:50:32.550Z,17.97
2018-11-27T22:53:01.229Z,18.10
2018-11-27T22:55:30.374Z,19.97
2018-11-27T22:57:58.936Z,18.80
2018-11-27T23:00:33.630Z,19.03
2018-11-27T23:03:02.434Z,18.50
2018-11-27T23:05:31.001Z,18.83
2018-11-27T23:07:59.997Z,18.23
2018-11-27T23:10:31.063Z,19.00
2018-11-27T23:12:59.637Z,19.23
2018-11-27T23:15:28.237Z,18.97
2018-11-27T23:17:56.919Z,19.07
2018-11-27T23:20:26.023Z,18.67
2018-11-27T23:22:54.596Z,19.60
2018-11-27T23:25:23.239Z,18.50
2018-11-27T23:27:51.938Z,17.67
2018-11-27T23:30:22.507Z,18.57
2018-11-27T23:32:51.078Z,19.70
2018-11-27T23:35:19.595Z,18.33
2018-11-27T23:37:48.206Z,18.67
2018-11-27T23:40:19.874Z,18.80
2018-11-27T23:42:48.773Z,18.23
2018-11-27T23:45:19.772Z,18.37
2018-11-27T23:47:48.389Z,18.27
2018-11-27T23:50:19.101Z,16.73
2018-11-27T23:52:48.373Z,17.60
2018-11-27T23:55:18.019Z,18.00
2018-11-27T23:57:46.936Z,19.97
